Time;durP1;ratioP1;P1;durP2;ratioP2;P2;SDS_P1;SDS_P2;PMS_P1;PMS_P2;Temp;Humidity;BMP_temperature;BMP_pressure;BME280_temperature;BME280_humidity;BME280_pressure;Samples;Min_cycle;Max_cycle;Signal;HPM_P1;HPM_P2
2024/03/11 00:00:23;;;;;;;31.73;17.53;;;;;;;7.39;99.13;99139.81;5079844;28;20209;-82
2024/03/11 00:02:50;;;;;;;33.13;20.00;;;;;;;7.36;98.88;99140.88;5082283;28;20204;-82
2024/03/11 00:05:17;;;;;;;30.97;18.70;;;;;;;7.34;99.29;99140.19;5082257;28;20200;-81
2024/03/11 00:07:45;;;;;;;29.43;17.73;;;;;;;7.34;98.69;99145.47;5081102;28;20233;-81
2024/03/11 00:10:15;;;;;;;32.40;18.53;;;;;;;7.33;98.79;99143.78;5081718;28;20228;-81
2024/03/11 00:12:49;;;;;;;32.87;19.30;;;;;;;7.33;98.65;99141.13;5081390;28;20259;-82
2024/03/11 00:15:15;;;;;;;31.93;18.13;;;;;;;7.31;99.06;99143.03;5080196;28;20189;-81
2024/03/11 00:17:43;;;;;;;33.07;18.40;;;;;;;7.30;98.96;99142.19;5080360;28;20227;-81
2024/03/11 00:20:11;;;;;;;29.80;18.37;;;;;;;7.29;98.55;99148.44;5080557;28;20201;-81
2024/03/11 00:22:38;;;;;;;33.27;19.27;;;;;;;7.30;98.64;99144.00;5081298;28;20220;-82
2024/03/11 00:25:06;;;;;;;34.37;18.83;;;;;;;7.29;99.09;99143.16;5081068;28;20444;-81
2024/03/11 00:27:36;;;;;;;27.93;17.67;;;;;;;7.30;98.67;99141.34;5080660;28;20216;-83
2024/03/11 00:30:03;;;;;;;33.30;19.20;;;;;;;7.30;99.07;99142.19;5080726;28;20204;-82
2024/03/11 00:32:30;;;;;;;32.97;18.70;;;;;;;7.30;99.29;99142.19;5081026;28;20231;-81
2024/03/11 00:34:58;;;;;;;34.27;19.33;;;;;;;7.29;99.13;99142.31;5078850;28;20677;-82
2024/03/11 00:37:25;;;;;;;29.47;17.57;;;;;;;7.28;99.04;99144.13;5077414;28;20271;-82
2024/03/11 00:39:53;;;;;;;34.47;19.87;;;;;;;7.28;99.34;99143.25;5077764;28;20233;-81
2024/03/11 00:42:19;;;;;;;32.67;19.03;;;;;;;7.29;99.61;99143.16;5078690;28;20212;-82
2024/03/11 00:44:48;;;;;;;31.83;19.67;;;;;;;7.30;99.57;99154.59;5078872;28;20572;-81
2024/03/11 00:47:15;;;;;;;33.23;18.83;;;;;;;7.30;99.34;99144.84;5078003;28;20328;-82
2024/03/11 00:49:42;;;;;;;34.10;18.63;;;;;;;7.32;99.37;99152.69;5079484;28;20240;-82
2024/03/11 00:52:10;;;;;;;36.63;19.70;;;;;;;7.32;99.55;99155.34;5079809;28;20224;-82
2024/03/11 00:54:36;;;;;;;31.60;17.70;;;;;;;7.31;99.55;99154.50;5078740;28;20235;-81
2024/03/11 00:57:05;;;;;;;30.70;18.73;;;;;;;7.32;99.61;99156.19;5078117;28;20248;-83
2024/03/11 00:59:31;;;;;;;30.17;18.20;;;;;;;7.34;99.13;99156.06;5077850;28;20215;-83
2024/03/11 01:01:58;;;;;;;33.97;18.77;;;;;;;7.34;99.47;99161.38;5078205;28;20248;-83
2024/03/11 01:04:25;;;;;;;32.73;18.40;;;;;;;7.35;99.56;99163.03;5078001;28;20208;-82
2024/03/11 01:06:52;;;;;;;31.07;18.17;;;;;;;7.34;98.95;99155.22;5078953;28;20213;-83
2024/03/11 01:09:20;;;;;;;32.23;19.50;;;;;;;7.34;98.63;99153.41;5079171;28;20224;-82
2024/03/11 01:11:47;;;;;;;29.37;18.83;;;;;;;7.32;98.85;99150.88;5079013;28;20240;-81
2024/03/11 01:14:14;;;;;;;31.87;18.67;;;;;;;7.32;99.14;99142.94;5079235;28;20264;-81
2024/03/11 01:16:40;;;;;;;33.17;19.73;;;;;;;7.30;99.25;99149.28;5080567;28;20253;-82
2024/03/11 01:19:07;;;;;;;31.37;18.17;;;;;;;7.29;99.63;99142.31;5079666;28;20798;-83
2024/03/11 01:21:35;;;;;;;30.07;18.63;;;;;;;7.29;99.34;99144.97;5079637;28;20209;-82
2024/03/11 01:24:03;;;;;;;29.17;19.07;;;;;;;7.29;99.35;99144.97;5079938;28;20207;-82
2024/03/11 01:26:32;;;;;;;29.87;17.97;;;;;;;7.27;98.96;99141.56;5080653;28;20585;-82
2024/03/11 01:28:59;;;;;;;30.93;18.57;;;;;;;7.28;98.86;99140.63;5081650;28;20664;-83
2024/03/11 01:31:26;;;;;;;27.60;18.73;;;;;;;7.25;99.33;99140.84;5080370;28;20282;-82
2024/03/11 01:33:53;;;;;;;30.33;18.67;;;;;;;7.22;98.76;99139.25;5078547;28;20260;-81
2024/03/11 01:36:20;;;;;;;30.00;18.27;;;;;;;7.19;98.85;99142.13;5078263;28;20201;-83
2024/03/11 01:38:47;;;;;;;30.17;18.83;;;;;;;7.18;99.54;99134.28;5077095;28;20627;-81
2024/03/11 01:41:14;;;;;;;32.00;18.03;;;;;;;7.17;98.92;99138.75;5077796;28;20731;-82
2024/03/11 01:43:42;;;;;;;34.13;18.80;;;;;;;7.16;98.99;99139.72;5079243;28;20204;-82
2024/03/11 01:46:09;;;;;;;33.17;19.37;;;;;;;7.16;99.64;99146.81;5082515;28;20232;-81
2024/03/11 01:48:36;;;;;;;32.83;19.17;;;;;;;7.14;99.26;99139.00;5081687;28;20282;-82
2024/03/11 01:51:05;;;;;;;31.27;19.43;;;;;;;7.14;99.45;99143.44;5083175;28;20710;-81
2024/03/11 01:53:32;;;;;;;28.07;17.67;;;;;;;7.13;99.79;99141.75;5082784;28;20260;-82
2024/03/11 01:55:59;;;;;;;29.87;18.63;;;;;;;7.12;99.20;99135.59;5082272;28;20212;-82
2024/03/11 01:58:29;;;;;;;28.63;17.73;;;;;;;7.07;98.67;99136.91;5082709;28;20263;-81
2024/03/11 02:00:58;;;;;;;28.33;17.50;;;;;;;7.00;98.70;99127.69;5082066;28;20209;-81
2024/03/11 02:03:25;;;;;;;29.00;18.73;;;;;;;6.93;98.76;99124.66;5082466;28;20230;-81
2024/03/11 02:05:52;;;;;;;31.30;18.17;;;;;;;6.90;99.31;99131.03;5082723;28;20264;-81
2024/03/11 02:08:21;;;;;;;29.27;17.07;;;;;;;6.86;99.81;99126.91;5082911;28;20221;-81
2024/03/11 02:10:48;;;;;;;30.17;19.43;;;;;;;6.85;99.75;99133.16;5081802;28;20216;-83
2024/03/11 02:13:15;;;;;;;32.90;18.73;;;;;;;6.84;100.00;99131.47;5080759;28;20229;-83
2024/03/11 02:15:42;;;;;;;31.10;18.73;;;;;;;6.84;100.00;99131.47;5081123;28;20243;-81
2024/03/11 02:18:10;;;;;;;35.07;18.97;;;;;;;6.83;100.00;99129.75;5081064;28;20278;-81
2024/03/11 02:20:40;;;;;;;33.43;18.63;;;;;;;6.84;100.00;99120.88;5081900;28;20201;-81
2024/03/11 02:23:08;;;;;;;31.93;19.30;;;;;;;6.83;100.00;99124.47;5081141;28;20229;-82
2024/03/11 02:25:35;;;;;;;31.03;18.40;;;;;;;6.84;100.00;99128.81;5081764;28;20240;-82
2024/03/11 02:28:03;;;;;;;32.70;18.57;;;;;;;6.84;100.00;99133.25;5081786;28;20627;-83
2024/03/11 02:30:32;;;;;;;33.43;18.27;;;;;;;6.84;100.00;99130.59;5081426;28;20211;-83
2024/03/11 02:32:59;;;;;;;32.83;19.43;;;;;;;6.83;100.00;99123.63;5081686;28;20228;-82
2024/03/11 02:35:27;;;;;;;29.17;17.50;;;;;;;6.84;100.00;99120.03;5081387;28;20208;-82
2024/03/11 02:37:53;;;;;;;32.90;18.53;;;;;;;6.82;100.00;99122.78;5080726;28;20592;-81
2024/03/11 02:40:26;;;;;;;30.77;18.00;;;;;;;6.77;100.00;99118.78;5081470;28;20201;-82
2024/03/11 02:42:53;;;;;;;30.17;18.23;;;;;;;6.75;100.00;99120.69;5081277;28;20193;-82
2024/03/11 02:45:21;;;;;;;34.37;19.70;;;;;;;6.73;100.00;99120.81;5082177;28;20265;-83
2024/03/11 02:47:49;;;;;;;31.53;17.97;;;;;;;6.71;100.00;99125.38;5080047;28;20225;-82
2024/03/11 02:50:16;;;;;;;32.50;18.97;;;;;;;6.71;100.00;99120.06;5079612;28;20224;-81
2024/03/11 02:52:43;;;;;;;29.17;18.60;;;;;;;6.71;100.00;99119.22;5079713;28;20231;-83
2024/03/11 02:55:13;;;;;;;30.10;18.00;;;;;;;6.70;100.00;99117.53;5079050;28;20212;-82
2024/03/11 02:57:43;;;;;;;33.37;18.90;;;;;;;6.70;100.00;99112.25;5080680;28;20221;-81
2024/03/11 03:00:10;;;;;;;31.60;18.93;;;;;;;6.70;100.00;99118.38;5080692;28;20205;-80
2024/03/11 03:02:38;;;;;;;30.73;18.40;;;;;;;6.70;100.00;99125.47;5082092;28;20221;-82
2024/03/11 03:05:06;;;;;;;35.23;20.70;;;;;;;6.69;100.00;99116.69;5081540;28;20684;-81
2024/03/11 03:07:33;;;;;;;33.47;19.10;;;;;;;6.68;100.00;99116.78;5081091;28;20757;-81
2024/03/11 03:10:00;;;;;;;38.97;19.63;;;;;;;6.66;100.00;99106.31;5080923;28;20200;-81
2024/03/11 03:12:29;;;;;;;27.87;18.20;;;;;;;6.69;100.00;99114.03;5082095;28;20255;-80
2024/03/11 03:14:57;;;;;;;34.67;19.90;;;;;;;6.69;100.00;99108.75;5080934;28;20864;-80
2024/03/11 03:17:24;;;;;;;32.13;19.67;;;;;;;6.69;100.00;99111.41;5081636;28;20239;-80
2024/03/11 03:19:50;;;;;;;32.13;19.90;;;;;;;6.70;100.00;99110.44;5080765;28;20205;-81
2024/03/11 03:22:17;;;;;;;33.90;18.50;;;;;;;6.71;100.00;99103.34;5079083;28;20730;-82
2024/03/11 03:24:44;;;;;;;29.33;18.50;;;;;;;6.71;100.00;99108.66;5080467;28;20205;-81
2024/03/11 03:27:10;;;;;;;30.03;17.87;;;;;;;6.68;100.00;99107.06;5080234;28;20253;-82
2024/03/11 03:29:39;;;;;;;31.97;18.17;;;;;;;6.69;100.00;99103.47;5059615;28;20237;-83
2024/03/11 03:32:08;;;;;;;29.13;17.97;;;;;;;6.70;100.00;99104.31;5059262;28;20307;-81
2024/03/11 03:34:35;;;;;;;29.20;17.93;;;;;;;6.70;100.00;99110.44;5060480;28;20205;-80
2024/03/11 03:37:00;;;;;;;25.67;17.20;;;;;;;6.68;100.00;99104.41;5060624;28;20256;-81
2024/03/11 03:39:28;;;;;;;33.27;18.63;;;;;;;6.68;100.00;99100.91;5059273;28;20210;-81
2024/03/11 03:41:55;;;;;;;32.30;19.03;;;;;;;6.68;100.00;99114.16;5061675;28;20210;-81
2024/03/11 03:44:22;;;;;;;31.10;19.53;;;;;;;6.68;100.00;99116.78;5062827;28;20213;-81
2024/03/11 03:46:48;;;;;;;29.33;18.23;;;;;;;6.68;100.00;99119.44;5062090;28;20220;-82
2024/03/11 03:49:17;;;;;;;32.03;18.00;;;;;;;6.67;100.00;99118.59;5060619;28;20235;-81
2024/03/11 03:51:43;;;;;;;26.77;17.37;;;;;;;6.67;100.00;99129.19;5061110;28;20202;-82
2024/03/11 03:54:11;;;;;;;31.33;18.03;;;;;;;6.66;100.00;99127.47;5061530;28;20210;-83
2024/03/11 03:56:38;;;;;;;28.53;18.17;;;;;;;6.66;100.00;99131.94;5059529;28;20230;-82
2024/03/11 03:59:05;;;;;;;33.53;18.90;;;;;;;6.67;100.00;99128.34;5059812;28;20215;-81
2024/03/11 04:01:32;;;;;;;30.20;17.43;;;;;;;6.65;100.00;99120.50;5060121;28;20245;-81
2024/03/11 04:03:58;;;;;;;31.33;17.93;;;;;;;6.64;100.00;99121.44;5061310;28;20190;-82
2024/03/11 04:06:26;;;;;;;27.90;17.20;;;;;;;6.61;100.00;99117.25;5061557;28;20217;-81
2024/03/11 04:08:53;;;;;;;30.33;18.03;;;;;;;6.58;100.00;99135.97;5061024;28;20209;-82
2024/03/11 04:11:20;;;;;;;30.90;18.23;;;;;;;6.57;100.00;99142.22;5060583;28;20248;-81
2024/03/11 04:13:49;;;;;;;30.50;17.40;;;;;;;6.56;100.00;99150.28;5059867;28;20238;-82
2024/03/11 04:16:16;;;;;;;29.47;18.17;;;;;;;6.52;100.00;99149.63;5058433;28;20213;-81
2024/03/11 04:18:42;;;;;;;31.97;18.47;;;;;;;6.53;100.00;99147.84;5059420;28;20284;-82
2024/03/11 04:21:09;;;;;;;29.43;17.33;;;;;;;6.51;100.00;99147.09;5059420;28;20892;-81
2024/03/11 04:23:38;;;;;;;30.27;19.47;;;;;;;6.49;100.00;99144.56;5060060;28;20237;-81
2024/03/11 04:26:07;;;;;;;30.70;17.70;;;;;;;6.49;100.00;99147.19;5060126;28;20577;-81
2024/03/11 04:28:36;;;;;;;32.17;18.97;;;;;;;6.48;100.00;99144.66;5059353;28;20288;-84
2024/03/11 04:31:03;;;;;;;33.30;19.20;;;;;;;6.44;100.00;99143.22;5058444;28;20213;-82
2024/03/11 04:33:30;;;;;;;29.90;18.37;;;;;;;6.42;100.00;99132.75;5058789;28;20245;-81
2024/03/11 04:35:57;;;;;;;35.33;19.60;;;;;;;6.39;100.00;99126.81;5058471;28;20214;-82
2024/03/11 04:38:23;;;;;;;33.30;19.07;;;;;;;6.37;100.00;99116.34;5058316;28;20248;-82
2024/03/11 04:40:52;;;;;;;31.83;19.37;;;;;;;6.37;100.00;99116.34;5059456;28;20198;-82
2024/03/11 04:43:19;;;;;;;30.30;18.53;;;;;;;6.37;100.00;99126.91;5059930;28;20650;-83
2024/03/11 04:45:46;;;;;;;30.30;19.17;;;;;;;6.37;100.00;99121.63;5060235;28;20233;-81
2024/03/11 04:48:13;;;;;;;37.27;19.17;;;;;;;6.39;100.00;99124.16;5060406;28;20233;-81
2024/03/11 04:50:41;;;;;;;29.43;18.93;;;;;;;6.39;100.00;99124.16;5060886;28;20241;-82
2024/03/11 04:53:08;;;;;;;29.30;17.73;;;;;;;6.39;100.00;99103.84;5060920;28;20605;-81
2024/03/11 04:55:36;;;;;;;27.57;17.60;;;;;;;6.39;100.00;99119.72;5061370;28;20201;-81
2024/03/11 04:58:05;;;;;;;33.53;19.20;;;;;;;6.40;100.00;99129.34;5059959;28;20253;-81
2024/03/11 05:00:31;;;;;;;31.90;18.70;;;;;;;6.41;100.00;99131.03;5059025;28;20695;-82
2024/03/11 05:02:59;;;;;;;31.87;19.47;;;;;;;6.41;100.00;99133.69;5060565;28;20241;-82
2024/03/11 05:05:25;;;;;;;34.17;19.43;;;;;;;6.42;100.00;99134.53;5060331;28;20201;-81
2024/03/11 05:07:52;;;;;;;31.50;18.50;;;;;;;6.42;100.00;99140.66;5060909;28;20225;-82
2024/03/11 05:10:19;;;;;;;30.67;18.80;;;;;;;6.41;100.00;99133.69;5061999;28;20202;-81
2024/03/11 05:12:47;;;;;;;32.73;19.10;;;;;;;6.42;100.00;99138.03;5061878;28;20533;-82
2024/03/11 05:15:17;;;;;;;34.63;19.73;;;;;;;6.41;100.00;99135.50;5060547;28;20216;-82
2024/03/11 05:17:43;;;;;;;33.37;18.73;;;;;;;6.42;100.00;99137.19;5059487;28;20228;-82
2024/03/11 05:20:14;;;;;;;29.80;19.80;;;;;;;6.41;100.00;99135.50;5060295;28;20882;-82
2024/03/11 05:22:41;;;;;;;33.80;19.10;;;;;;;6.41;100.00;99136.34;5061405;28;20292;-83
2024/03/11 05:25:08;;;;;;;35.77;19.47;;;;;;;6.42;100.00;99140.66;5060643;28;20205;-82
2024/03/11 05:27:35;;;;;;;33.63;20.47;;;;;;;6.40;100.00;99153.16;5060022;28;20260;-83
2024/03/11 05:30:04;;;;;;;36.53;20.83;;;;;;;6.41;100.00;99148.72;5060549;28;20297;-81
2024/03/11 05:32:32;;;;;;;36.10;19.93;;;;;;;6.38;100.00;99162.97;5061008;28;20300;-81
2024/03/11 05:34:59;;;;;;;29.67;18.13;;;;;;;6.37;100.00;99163.94;5060856;28;20273;-82
2024/03/11 05:37:26;;;;;;;33.47;19.10;;;;;;;6.36;100.00;99158.75;5061137;28;20228;-82
2024/03/11 05:39:54;;;;;;;34.13;19.00;;;;;;;6.33;100.00;99156.31;5061786;28;20232;-82
2024/03/11 05:42:20;;;;;;;34.37;18.53;;;;;;;6.31;100.00;99161.72;5061554;28;20661;-82
2024/03/11 05:44:47;;;;;;;33.97;19.63;;;;;;;6.30;100.00;99156.53;5061409;28;20296;-82
2024/03/11 05:47:14;;;;;;;28.50;18.13;;;;;;;6.31;100.00;99163.50;5060826;28;20271;-84
2024/03/11 05:49:42;;;;;;;31.50;20.33;;;;;;;6.30;100.00;99162.66;5060083;28;20691;-82
2024/03/11 05:52:09;;;;;;;32.83;19.73;;;;;;;6.32;100.00;99165.19;5061497;28;20205;-82
2024/03/11 05:54:38;;;;;;;35.23;20.03;;;;;;;6.33;100.00;99166.88;5062084;28;20719;-82
2024/03/11 05:57:05;;;;;;;33.20;18.63;;;;;;;6.34;100.00;99171.22;5061590;28;20225;-81
2024/03/11 05:59:32;;;;;;;33.63;19.77;;;;;;;6.34;100.00;99173.88;5061781;28;20951;-81
2024/03/11 06:01:59;;;;;;;35.83;18.97;;;;;;;6.35;100.00;99175.56;5061475;28;20212;-82
2024/03/11 06:04:26;;;;;;;38.93;20.23;;;;;;;6.36;100.00;99179.91;5062293;28;20216;-81
2024/03/11 06:06:55;;;;;;;33.60;19.80;;;;;;;6.35;100.00;99186.16;5061203;28;20232;-82
2024/03/11 06:09:21;;;;;;;36.23;21.00;;;;;;;6.36;100.00;99188.69;5061873;28;20214;-81
2024/03/11 06:11:49;;;;;;;32.33;19.63;;;;;;;6.36;100.00;99196.63;5061226;28;20209;-83
2024/03/11 06:14:17;;;;;;;35.87;20.57;;;;;;;6.37;100.00;99185.09;5060270;28;20268;-82
2024/03/11 06:16:45;;;;;;;31.90;19.27;;;;;;;6.38;100.00;99188.59;5061501;28;20226;-82
2024/03/11 06:19:16;;;;;;;33.80;20.30;;;;;;;6.38;100.00;99184.13;5061802;28;20198;-82
2024/03/11 06:21:43;;;;;;;34.87;21.27;;;;;;;6.38;100.00;99200.00;5062321;28;20200;-82
2024/03/11 06:24:11;;;;;;;35.60;20.73;;;;;;;6.39;100.00;99187.63;5062674;28;20210;-83
2024/03/11 06:26:38;;;;;;;36.83;21.33;;;;;;;6.37;100.00;99198.31;5062598;28;20229;-82
2024/03/11 06:29:07;;;;;;;33.03;20.60;;;;;;;6.40;100.00;99202.53;5062169;28;20800;-82
2024/03/11 06:31:36;;;;;;;37.43;20.17;;;;;;;6.39;100.00;99193.75;5065230;28;20283;-82
2024/03/11 06:34:06;;;;;;;32.33;19.33;;;;;;;6.41;100.00;99196.31;5065875;28;20224;-82
2024/03/11 06:36:33;;;;;;;35.07;20.57;;;;;;;6.39;100.00;99198.22;5064670;28;20212;-83
2024/03/11 06:39:00;;;;;;;35.37;20.30;;;;;;;6.39;100.00;99203.50;5064274;28;20213;-82
2024/03/11 06:41:28;;;;;;;37.80;21.60;;;;;;;6.38;100.00;99207.09;5065176;28;20198;-82
2024/03/11 06:43:55;;;;;;;41.60;21.17;;;;;;;6.40;100.00;99218.41;5064312;28;20202;-82
2024/03/11 06:46:21;;;;;;;34.90;20.57;;;;;;;6.42;100.00;99211.22;5065247;28;20202;-82
2024/03/11 06:48:49;;;;;;;38.13;22.13;;;;;;;6.43;100.00;99223.50;5064758;28;20228;-83
2024/03/11 06:51:15;;;;;;;39.87;22.03;;;;;;;6.44;100.00;99233.13;5064041;28;20215;-82
2024/03/11 06:53:42;;;;;;;37.93;21.80;;;;;;;6.46;100.00;99233.84;5063349;28;20249;-82
2024/03/11 06:56:11;;;;;;;35.30;19.70;;;;;;;6.46;100.00;99239.13;5063906;28;20208;-82
2024/03/11 06:58:38;;;;;;;38.90;19.87;;;;;;;6.46;100.00;99242.63;5062452;28;20257;-81
2024/03/11 07:01:05;;;;;;;36.57;20.13;;;;;;;6.47;100.00;99243.47;5062354;28;20626;-82
2024/03/11 07:03:32;;;;;;;35.27;21.00;;;;;;;6.48;100.00;99250.44;5064002;28;20264;-82
2024/03/11 07:05:59;;;;;;;34.93;21.33;;;;;;;6.49;100.00;99262.72;5063972;28;20240;-82
2024/03/11 07:08:26;;;;;;;35.70;20.10;;;;;;;6.51;100.00;99263.47;5063138;28;20289;-81
2024/03/11 07:10:53;;;;;;;35.63;21.20;;;;;;;6.53;100.00;99270.34;5063409;28;20296;-82
2024/03/11 07:13:20;;;;;;;35.00;21.57;;;;;;;6.53;100.00;99269.50;5061636;28;20360;-82
2024/03/11 07:15:49;;;;;;;32.83;20.37;;;;;;;6.55;100.00;99272.88;5061597;28;20816;-82
2024/03/11 07:18:16;;;;;;;35.67;20.00;;;;;;;6.54;100.00;99276.50;5059660;28;20230;-83
2024/03/11 07:20:42;;;;;;;35.10;20.40;;;;;;;6.54;100.00;99279.13;5060426;28;20202;-82
2024/03/11 07:23:09;;;;;;;36.33;21.33;;;;;;;6.56;100.00;99290.47;5059912;28;20227;-82
2024/03/11 07:25:36;;;;;;;41.10;22.27;;;;;;;6.56;100.00;99290.47;5060122;28;20206;-83
2024/03/11 07:28:04;;;;;;;31.90;20.30;;;;;;;6.58;100.00;99293.84;5060589;28;20256;-81
2024/03/11 07:30:31;;;;;;;34.50;20.50;;;;;;;6.56;100.00;99296.59;5060176;28;20224;-81
2024/03/11 07:33:07;;;;;;;40.07;21.67;;;;;;;6.57;100.00;99300.94;5061027;28;20608;-81
2024/03/11 07:35:35;;;;;;;34.33;20.87;;;;;;;6.57;100.00;99293.00;5060739;28;20251;-83
2024/03/11 07:38:01;;;;;;;36.70;21.50;;;;;;;6.61;100.00;99309.50;5060481;28;20229;-82
2024/03/11 07:40:28;;;;;;;37.37;21.30;;;;;;;6.60;100.00;99299.88;5058831;28;20206;-81
2024/03/11 07:42:57;;;;;;;36.70;20.90;;;;;;;6.63;100.00;99301.47;5058191;28;20757;-81
2024/03/11 07:45:24;;;;;;;39.67;22.70;;;;;;;6.64;100.00;99304.00;5059113;28;20212;-81
2024/03/11 07:47:53;;;;;;;37.50;22.60;;;;;;;6.65;100.00;99305.69;5059567;28;20795;-81
2024/03/11 07:50:21;;;;;;;35.80;22.10;;;;;;;6.67;100.00;99300.28;5059746;28;20213;-82
2024/03/11 07:52:49;;;;;;;41.90;23.57;;;;;;;6.69;100.00;99304.53;5062339;28;20209;-82
2024/03/11 07:55:18;;;;;;;36.37;22.07;;;;;;;6.71;100.00;99309.72;5061734;28;20217;-81
2024/03/11 07:57:45;;;;;;;39.97;23.10;;;;;;;6.71;100.00;99317.66;5062374;28;20329;-81
2024/03/11 08:00:17;;;;;;;37.70;22.37;;;;;;;6.74;100.00;99323.59;5061836;28;20218;-83
2024/03/11 08:02:44;;;;;;;39.63;24.10;;;;;;;6.79;100.00;99325.94;5060867;28;20732;-82
2024/03/11 08:05:13;;;;;;;38.80;22.13;;;;;;;6.81;100.00;99327.47;5062107;28;20607;-83
2024/03/11 08:07:42;;;;;;;38.83;22.13;;;;;;;6.83;100.00;99330.88;5061856;28;20221;-82
2024/03/11 08:10:11;;;;;;;39.23;23.37;;;;;;;6.89;100.00;99341.06;5060865;28;20251;-82
2024/03/11 08:12:38;;;;;;;35.83;21.80;;;;;;;6.91;100.00;99341.78;5060129;28;20662;-82
2024/03/11 08:15:07;;;;;;;40.40;22.70;;;;;;;6.95;100.00;99345.94;5057503;28;20229;-81
2024/03/11 08:17:35;;;;;;;40.30;23.80;;;;;;;7.01;100.00;99355.22;5058558;28;20308;-82
2024/03/11 08:20:01;;;;;;;36.23;22.67;;;;;;;7.06;100.00;99352.28;5057161;28;20406;-82
2024/03/11 08:22:28;;;;;;;52.27;23.27;;;;;;;7.11;100.00;99353.66;5055910;28;20746;-82
2024/03/11 08:24:56;;;;;;;37.57;22.27;;;;;;;7.18;100.00;99354.06;5054563;28;20209;-81
2024/03/11 08:27:23;;;;;;;39.33;23.83;;;;;;;7.21;100.00;99357.34;5057536;28;20866;-81
2024/03/11 08:29:50;;;;;;;40.30;24.27;;;;;;;7.25;100.00;99364.13;5057623;28;20233;-81
2024/03/11 08:32:16;;;;;;;37.80;23.30;;;;;;;7.30;100.00;99361.16;5058069;28;20225;-81
2024/03/11 08:34:43;;;;;;;40.47;24.37;;;;;;;7.36;100.00;99365.16;5053673;28;20257;-79
2024/03/11 08:37:10;;;;;;;41.50;23.70;;;;;;;7.41;100.00;99361.25;5056688;28;20236;-80
2024/03/11 08:39:36;;;;;;;47.07;25.27;;;;;;;7.44;100.00;99350.44;5057961;28;20268;-79
2024/03/11 08:42:04;;;;;;;40.80;23.47;;;;;;;7.49;100.00;99348.31;5057422;28;20241;-79
2024/03/11 08:44:31;;;;;;;40.03;23.97;;;;;;;7.54;100.00;99347.97;5057752;28;20201;-79
2024/03/11 08:46:58;;;;;;;41.00;24.43;;;;;;;7.60;100.00;99347.53;5056472;28;20229;-79
2024/03/11 08:49:24;;;;;;;41.27;23.60;;;;;;;7.66;100.00;99361.19;5057090;28;20241;-79
2024/03/11 08:51:52;;;;;;;41.00;23.93;;;;;;;7.74;100.00;99357.97;5055935;28;20228;-79
2024/03/11 08:54:19;;;;;;;40.20;25.37;;;;;;;7.80;100.00;99359.34;5055522;28;20236;-80
2024/03/11 08:56:45;;;;;;;36.53;22.93;;;;;;;7.87;100.00;99358.81;5057092;28;20275;-80
2024/03/11 08:59:15;;;;;;;38.40;22.93;;;;;;;7.92;100.00;99363.75;5056488;28;20248;-80
2024/03/11 09:01:42;;;;;;;40.33;23.63;;;;;;;7.97;100.00;99361.63;5056047;28;20224;-79
2024/03/11 09:04:10;;;;;;;37.90;23.33;;;;;;;8.05;100.00;99364.56;5056145;28;20182;-80
2024/03/11 09:06:39;;;;;;;39.90;25.17;;;;;;;8.12;100.00;99354.34;5056282;28;20223;-80
2024/03/11 09:09:07;;;;;;;40.93;24.23;;;;;;;8.20;100.00;99366.09;5055797;28;20256;-80
2024/03/11 09:11:34;;;;;;;41.67;23.50;;;;;;;8.29;100.00;99368.03;5054215;28;20245;-80
2024/03/11 09:14:00;;;;;;;35.43;21.53;;;;;;;8.43;100.00;99358.22;5054398;28;20261;-79
2024/03/11 09:16:29;;;;;;;32.30;21.30;;;;;;;8.60;100.00;99358.66;5054583;28;20213;-79
2024/03/11 09:18:56;;;;;;;34.93;22.00;;;;;;;8.77;100.00;99349.44;5055559;28;20205;-80
2024/03/11 09:21:23;;;;;;;33.60;21.20;;;;;;;8.97;100.00;99358.50;5055399;28;20240;-80
2024/03/11 09:23:50;;;;;;;22.00;16.10;;;;;;;9.19;100.00;99352.38;5057374;28;20237;-81
2024/03/11 09:26:18;;;;;;;17.73;13.03;;;;;;;9.43;100.00;99349.59;5056584;28;20245;-79
2024/03/11 09:28:46;;;;;;;15.70;12.37;;;;;;;9.66;100.00;99346.81;5057275;28;20209;-81
2024/03/11 09:31:13;;;;;;;16.10;12.03;;;;;;;9.87;100.00;99354.00;5055575;28;20698;-79
2024/03/11 09:33:42;;;;;;;16.10;12.37;;;;;;;10.06;99.69;99367.50;5059538;28;20289;-80
2024/03/11 09:36:09;;;;;;;13.60;10.37;;;;;;;10.26;96.03;99371.22;5059318;28;20726;-81
2024/03/11 09:38:36;;;;;;;11.30;8.50;;;;;;;10.38;93.00;99371.06;5058188;28;20316;-79
2024/03/11 09:41:14;;;;;;;10.67;9.10;;;;;;;10.49;90.78;99383.47;5069023;28;20281;-79
2024/03/11 09:43:43;;;;;;;10.27;9.07;;;;;;;10.50;89.86;99385.19;5055355;28;20195;-79
2024/03/11 09:46:14;;;;;;;11.43;8.20;;;;;;;10.55;89.46;99393.63;5055845;28;20213;-79
2024/03/11 09:48:43;;;;;;;8.37;6.90;;;;;;;10.65;88.88;99383.91;5062783;28;20300;-80
2024/03/11 09:51:15;;;;;;;5.80;5.10;;;;;;;10.70;85.04;99386.19;5054366;28;20206;-80
2024/03/11 09:53:43;;;;;;;5.17;4.37;;;;;;;10.77;84.36;99393.50;5066725;28;20217;-79
2024/03/11 09:56:10;;;;;;;6.23;5.20;;;;;;;10.85;84.23;99392.88;5055321;28;20220;-79
2024/03/11 09:58:39;;;;;;;6.40;5.80;;;;;;;10.94;82.68;99394.75;5074136;28;20221;-79
2024/03/11 10:01:09;;;;;;;7.00;5.77;;;;;;;11.05;82.81;99391.19;5066686;28;20224;-79
2024/03/11 10:03:37;;;;;;;5.87;4.93;;;;;;;11.22;81.37;99392.41;5055771;28;20217;-79
2024/03/11 10:06:07;;;;;;;5.87;4.50;;;;;;;11.35;79.97;99383.22;5058047;28;20235;-80
2024/03/11 10:08:35;;;;;;;4.50;3.77;;;;;;;11.44;77.91;99379.78;5059732;28;20485;-81
2024/03/11 10:11:12;;;;;;;3.97;3.17;;;;;;;11.49;76.12;99382.00;5066791;28;20259;-80
2024/03/11 10:13:39;;;;;;;3.50;3.10;;;;;;;11.57;75.69;99376.88;5075940;28;20246;-80
2024/03/11 10:16:17;;;;;;;2.50;2.20;;;;;;;11.65;74.17;99381.50;5059324;28;20235;-81
2024/03/11 10:19:00;;;;;;;2.23;1.60;;;;;;;11.71;72.88;99386.31;5058939;28;20220;-81
2024/03/11 10:21:29;;;;;;;1.90;1.60;;;;;;;11.78;71.61;99392.84;5062227;28;20211;-80
2024/03/11 10:23:59;;;;;;;1.60;1.40;;;;;;;11.82;71.56;99400.41;5067204;28;20204;-80
2024/03/11 10:26:30;;;;;;;2.00;1.40;;;;;;;11.86;70.79;99406.31;5061365;28;20275;-79
2024/03/11 10:28:57;;;;;;;3.47;1.37;;;;;;;11.95;70.66;99423.34;5065534;28;20786;-80
2024/03/11 10:31:27;;;;;;;1.47;1.10;;;;;;;11.95;68.28;99416.19;5066044;28;20694;-80
2024/03/11 10:34:04;;;;;;;1.53;1.20;;;;;;;11.89;67.98;99423.91;5069218;28;20226;-81
2024/03/11 10:36:32;;;;;;;2.30;1.30;;;;;;;11.82;69.21;99435.09;5076608;28;20254;-81
2024/03/11 10:39:07;;;;;;;1.77;1.37;;;;;;;11.76;69.63;99441.00;5056273;28;20264;-80
2024/03/11 10:41:34;;;;;;;2.10;1.40;;;;;;;11.74;69.15;99436.72;5064711;28;20199;-81
2024/03/11 10:44:13;;;;;;;1.97;1.47;;;;;;;11.68;69.49;99443.44;5056842;28;20199;-79
2024/03/11 10:46:41;;;;;;;2.07;1.80;;;;;;;11.64;70.59;99443.84;5060072;28;20241;-80
2024/03/11 10:49:12;;;;;;;1.90;1.40;;;;;;;11.62;70.85;99441.31;5056612;28;20219;-79
2024/03/11 10:51:45;;;;;;;1.40;1.30;;;;;;;11.61;71.22;99446.78;5054090;28;20227;-79
2024/03/11 10:54:22;;;;;;;2.50;2.00;;;;;;;11.60;71.13;99458.41;5055634;28;20201;-79
2024/03/11 10:56:52;;;;;;;2.47;1.70;;;;;;;11.57;71.03;99461.34;5055511;28;20233;-79
2024/03/11 10:59:21;;;;;;;1.13;1.00;;;;;;;11.59;71.99;99464.72;5056470;28;20269;-79
2024/03/11 11:01:57;;;;;;;0.70;0.70;;;;;;;11.59;69.91;99470.91;5059035;28;20237;-79
2024/03/11 11:04:28;;;;;;;0.60;0.60;;;;;;;11.56;70.44;99467.66;5059483;28;20202;-79
2024/03/11 11:06:59;;;;;;;0.90;0.70;;;;;;;11.56;70.39;99479.16;5057181;28;20217;-79
2024/03/11 11:09:28;;;;;;;0.87;0.60;;;;;;;11.53;70.07;99476.75;5056517;28;20632;-79
2024/03/11 11:11:55;;;;;;;2.27;1.20;;;;;;;11.52;70.94;99469.72;5061054;28;20204;-79
2024/03/11 11:14:24;;;;;;;0.50;0.40;;;;;;;11.48;69.67;99473.63;5056070;28;20622;-79
2024/03/11 11:16:52;;;;;;;0.97;0.70;;;;;;;11.47;69.83;99464.78;5057137;28;20221;-79
2024/03/11 11:19:23;;;;;;;1.70;1.10;;;;;;;11.43;68.80;99482.03;5056568;28;20232;-79
2024/03/11 11:21:51;;;;;;;0.50;0.50;;;;;;;11.39;68.17;99480.63;5066282;28;20203;-79
2024/03/11 11:24:29;;;;;;;1.57;1.20;;;;;;;11.41;68.90;99478.66;5058318;28;20197;-79